sensor_id;sensor_type;location;lat;lon;timestamp;pressure;altitude;pressure_sealevel;temperature;humidity
10079;BME280;5078;42.544;22.966;2023-11-22T00:00:45;93131.19;;;11.32;100.00
10079;BME280;5078;42.544;22.966;2023-11-22T00:03:12;93136.09;;;11.29;100.00
10079;BME280;5078;42.544;22.966;2023-11-22T00:05:39;93137.75;;;11.36;100.00
10079;BME280;5078;42.544;22.966;2023-11-22T00:08:06;93128.38;;;11.34;100.00
10079;BME280;5078;42.544;22.966;2023-11-22T00:10:33;93132.00;;;11.26;100.00
10079;BME280;5078;42.544;22.966;2023-11-22T00:12:59;93131.56;;;11.16;100.00
10079;BME280;5078;42.544;22.966;2023-11-22T00:15:27;93134.78;;;11.11;100.00
10079;BME280;5078;42.544;22.966;2023-11-22T00:17:54;93140.88;;;11.05;100.00
10079;BME280;5078;42.544;22.966;2023-11-22T00:20:23;93144.72;;;11.02;100.00
10079;BME280;5078;42.544;22.966;2023-11-22T00:22:49;93145.94;;;10.93;100.00
10079;BME280;5078;42.544;22.966;2023-11-22T00:25:16;93144.50;;;10.97;100.00
10079;BME280;5078;42.544;22.966;2023-11-22T00:27:44;93128.28;;;10.79;100.00
10079;BME280;5078;42.544;22.966;2023-11-22T00:30:13;93137.97;;;10.93;100.00
10079;BME280;5078;42.544;22.966;2023-11-22T00:32:41;93142.06;;;10.96;100.00
10079;BME280;5078;42.544;22.966;2023-11-22T00:35:08;93131.81;;;10.86;100.00
10079;BME280;5078;42.544;22.966;2023-11-22T00:37:35;93137.25;;;10.78;100.00
10079;BME280;5078;42.544;22.966;2023-11-22T00:40:01;93135.47;;;10.85;100.00
10079;BME280;5078;42.544;22.966;2023-11-22T00:42:36;93133.03;;;10.90;100.00
10079;BME280;5078;42.544;22.966;2023-11-22T00:45:03;93119.94;;;10.82;100.00
10079;BME280;5078;42.544;22.966;2023-11-22T00:47:31;93133.72;;;10.99;100.00
10079;BME280;5078;42.544;22.966;2023-11-22T00:50:00;93125.97;;;11.04;100.00
10079;BME280;5078;42.544;22.966;2023-11-22T00:52:27;93122.53;;;11.04;100.00
10079;BME280;5078;42.544;22.966;2023-11-22T00:54:54;93121.69;;;11.03;100.00
10079;BME280;5078;42.544;22.966;2023-11-22T00:57:20;93117.59;;;11.00;100.00
10079;BME280;5078;42.544;22.966;2023-11-22T00:59:47;93111.69;;;10.98;100.00
10079;BME280;5078;42.544;22.966;2023-11-22T01:02:15;93119.44;;;11.00;100.00
10079;BME280;5078;42.544;22.966;2023-11-22T01:04:42;93115.78;;;11.01;100.00
10079;BME280;5078;42.544;22.966;2023-11-22T01:07:10;93110.88;;;11.05;100.00
10079;BME280;5078;42.544;22.966;2023-11-22T01:09:37;93113.94;;;11.01;100.00
10079;BME280;5078;42.544;22.966;2023-11-22T01:12:04;93107.59;;;11.02;100.00
10079;BME280;5078;42.544;22.966;2023-11-22T01:14:30;93105.75;;;10.96;100.00
10079;BME280;5078;42.544;22.966;2023-11-22T01:16:57;93093.88;;;10.92;100.00
10079;BME280;5078;42.544;22.966;2023-11-22T01:19:24;93098.59;;;10.97;100.00
10079;BME280;5078;42.544;22.966;2023-11-22T01:21:51;93097.38;;;10.99;100.00
10079;BME280;5078;42.544;22.966;2023-11-22T01:24:19;93091.59;;;10.83;100.00
10079;BME280;5078;42.544;22.966;2023-11-22T01:26:46;93091.53;;;10.69;100.00
10079;BME280;5078;42.544;22.966;2023-11-22T01:29:13;93093.16;;;10.70;100.00
10079;BME280;5078;42.544;22.966;2023-11-22T01:31:39;93088.06;;;10.69;100.00
10079;BME280;5078;42.544;22.966;2023-11-22T01:34:07;93085.03;;;10.72;100.00
10079;BME280;5078;42.544;22.966;2023-11-22T01:36:34;93088.88;;;10.69;100.00
10079;BME280;5078;42.544;22.966;2023-11-22T01:39:00;93080.97;;;10.76;100.00
10079;BME280;5078;42.544;22.966;2023-11-22T01:41:29;93089.34;;;10.79;100.00
10079;BME280;5078;42.544;22.966;2023-11-22T01:43:56;93086.47;;;10.74;100.00
10079;BME280;5078;42.544;22.966;2023-11-22T01:46:24;93086.22;;;10.69;100.00
10079;BME280;5078;42.544;22.966;2023-11-22T01:48:52;93080.69;;;10.64;100.00
10079;BME280;5078;42.544;22.966;2023-11-22T01:51:20;93063.31;;;10.55;100.00
10079;BME280;5078;42.544;22.966;2023-11-22T01:53:47;93064.28;;;10.47;100.00
10079;BME280;5078;42.544;22.966;2023-11-22T01:56:15;93073.50;;;10.51;100.00
10079;BME280;5078;42.544;22.966;2023-11-22T01:58:44;93068.81;;;10.53;100.00
10079;BME280;5078;42.544;22.966;2023-11-22T02:01:12;93069.59;;;10.47;100.00
10079;BME280;5078;42.544;22.966;2023-11-22T02:03:39;93068.59;;;10.55;100.00
10079;BME280;5078;42.544;22.966;2023-11-22T02:06:06;93055.06;;;10.43;100.00
10079;BME280;5078;42.544;22.966;2023-11-22T02:08:35;93046.75;;;10.46;100.00
10079;BME280;5078;42.544;22.966;2023-11-22T02:11:02;93026.31;;;10.33;100.00
10079;BME280;5078;42.544;22.966;2023-11-22T02:13:29;93050.41;;;10.45;100.00
10079;BME280;5078;42.544;22.966;2023-11-22T02:15:57;93054.94;;;10.51;100.00
10079;BME280;5078;42.544;22.966;2023-11-22T02:18:25;93055.41;;;10.62;100.00
10079;BME280;5078;42.544;22.966;2023-11-22T02:20:52;93055.00;;;10.65;100.00
10079;BME280;5078;42.544;22.966;2023-11-22T02:23:20;93059.28;;;10.66;100.00
10079;BME280;5078;42.544;22.966;2023-11-22T02:25:47;93058.06;;;10.62;100.00
10079;BME280;5078;42.544;22.966;2023-11-22T02:28:14;93049.59;;;10.45;100.00
10079;BME280;5078;42.544;22.966;2023-11-22T02:30:41;93054.69;;;10.46;100.00
10079;BME280;5078;42.544;22.966;2023-11-22T02:33:08;93049.13;;;10.34;100.00
10079;BME280;5078;42.544;22.966;2023-11-22T02:35:35;93055.84;;;10.37;100.00
10079;BME280;5078;42.544;22.966;2023-11-22T02:38:02;93048.78;;;10.44;100.00
10079;BME280;5078;42.544;22.966;2023-11-22T02:40:32;93042.66;;;10.44;100.00
10079;BME280;5078;42.544;22.966;2023-11-22T02:42:58;93044.88;;;10.40;100.00
10079;BME280;5078;42.544;22.966;2023-11-22T02:45:27;93041.81;;;10.36;100.00
10079;BME280;5078;42.544;22.966;2023-11-22T02:47:55;93048.44;;;10.54;100.00
10079;BME280;5078;42.544;22.966;2023-11-22T02:50:21;93047.22;;;10.56;100.00
10079;BME280;5078;42.544;22.966;2023-11-22T02:52:48;93050.91;;;10.62;100.00
10079;BME280;5078;42.544;22.966;2023-11-22T02:55:15;93047.03;;;10.65;100.00
10079;BME280;5078;42.544;22.966;2023-11-22T02:57:43;93052.53;;;10.56;100.00
10079;BME280;5078;42.544;22.966;2023-11-22T03:00:11;93051.75;;;10.69;100.00
10079;BME280;5078;42.544;22.966;2023-11-22T03:02:40;93059.94;;;10.74;100.00
10079;BME280;5078;42.544;22.966;2023-11-22T03:05:07;93065.06;;;10.76;100.00
10079;BME280;5078;42.544;22.966;2023-11-22T03:07:35;93054.59;;;10.68;100.00
10079;BME280;5078;42.544;22.966;2023-11-22T03:10:02;93070.59;;;10.81;100.00
10079;BME280;5078;42.544;22.966;2023-11-22T03:12:29;93070.59;;;10.81;100.00
10079;BME280;5078;42.544;22.966;2023-11-22T03:14:57;93061.44;;;10.84;100.00
10079;BME280;5078;42.544;22.966;2023-11-22T03:17:27;93074.28;;;10.87;100.00
10079;BME280;5078;42.544;22.966;2023-11-22T03:19:54;93068.16;;;10.86;100.00
10079;BME280;5078;42.544;22.966;2023-11-22T03:22:22;93062.47;;;10.89;100.00
10079;BME280;5078;42.544;22.966;2023-11-22T03:24:49;93064.94;;;10.97;100.00
10079;BME280;5078;42.544;22.966;2023-11-22T03:27:16;93060.84;;;10.95;100.00
10079;BME280;5078;42.544;22.966;2023-11-22T03:29:43;93061.88;;;10.94;100.00
10079;BME280;5078;42.544;22.966;2023-11-22T03:32:13;93061.06;;;10.93;100.00
10079;BME280;5078;42.544;22.966;2023-11-22T03:34:39;93058.41;;;10.93;100.00
10079;BME280;5078;42.544;22.966;2023-11-22T03:37:06;93054.31;;;10.97;100.00
10079;BME280;5078;42.544;22.966;2023-11-22T03:39:33;93059.81;;;10.89;100.00
10079;BME280;5078;42.544;22.966;2023-11-22T03:42:00;93048.34;;;10.82;100.00
10079;BME280;5078;42.544;22.966;2023-11-22T03:44:27;93059.91;;;10.68;100.00
10079;BME280;5078;42.544;22.966;2023-11-22T03:46:54;93064.78;;;10.64;100.00
10079;BME280;5078;42.544;22.966;2023-11-22T03:49:22;93070.81;;;10.23;100.00
10079;BME280;5078;42.544;22.966;2023-11-22T03:51:49;93077.47;;;10.12;100.00
10079;BME280;5078;42.544;22.966;2023-11-22T03:54:16;93086.38;;;10.05;100.00
10079;BME280;5078;42.544;22.966;2023-11-22T03:56:44;93085.63;;;10.11;100.00
10079;BME280;5078;42.544;22.966;2023-11-22T03:59:10;93067.84;;;10.05;100.00
10079;BME280;5078;42.544;22.966;2023-11-22T04:01:37;93091.25;;;10.01;100.00
10079;BME280;5078;42.544;22.966;2023-11-22T04:04:04;93074.97;;;9.83;100.00
10079;BME280;5078;42.544;22.966;2023-11-22T04:06:32;93104.47;;;9.80;100.00
10079;BME280;5078;42.544;22.966;2023-11-22T04:08:59;93102.91;;;9.85;100.00
10079;BME280;5078;42.544;22.966;2023-11-22T04:11:26;93089.81;;;9.77;100.00
10079;BME280;5078;42.544;22.966;2023-11-22T04:13:54;93096.44;;;9.66;100.00
10079;BME280;5078;42.544;22.966;2023-11-22T04:16:21;93096.22;;;9.68;100.00
10079;BME280;5078;42.544;22.966;2023-11-22T04:18:48;93098.13;;;9.74;100.00
10079;BME280;5078;42.544;22.966;2023-11-22T04:21:14;93104.09;;;9.83;100.00
10079;BME280;5078;42.544;22.966;2023-11-22T04:23:42;93101.53;;;9.89;100.00
10079;BME280;5078;42.544;22.966;2023-11-22T04:26:10;93109.34;;;9.76;100.00
10079;BME280;5078;42.544;22.966;2023-11-22T04:28:36;93111.41;;;9.81;100.00
10079;BME280;5078;42.544;22.966;2023-11-22T04:31:03;93112.94;;;9.68;100.00
10079;BME280;5078;42.544;22.966;2023-11-22T04:33:30;93124.31;;;9.11;100.00
10079;BME280;5078;42.544;22.966;2023-11-22T04:35:57;93126.44;;;9.37;100.00
10079;BME280;5078;42.544;22.966;2023-11-22T04:38:23;93132.97;;;9.56;100.00
10079;BME280;5078;42.544;22.966;2023-11-22T04:40:52;93133.59;;;9.80;100.00
10079;BME280;5078;42.544;22.966;2023-11-22T04:43:18;93134.81;;;9.99;100.00
10079;BME280;5078;42.544;22.966;2023-11-22T04:45:45;93134.50;;;10.08;100.00
10079;BME280;5078;42.544;22.966;2023-11-22T04:48:12;93132.72;;;9.94;100.00
10079;BME280;5078;42.544;22.966;2023-11-22T04:50:40;93138.03;;;9.94;100.00
10079;BME280;5078;42.544;22.966;2023-11-22T04:53:08;93141.16;;;10.04;100.00
10079;BME280;5078;42.544;22.966;2023-11-22T04:55:34;93135.47;;;10.07;100.00
10079;BME280;5078;42.544;22.966;2023-11-22T04:58:03;93141.72;;;10.21;100.00
10079;BME280;5078;42.544;22.966;2023-11-22T05:00:29;93140.69;;;10.22;100.00
10079;BME280;5078;42.544;22.966;2023-11-22T05:02:56;93155.16;;;10.41;100.00
10079;BME280;5078;42.544;22.966;2023-11-22T05:05:23;93164.91;;;10.41;100.00
10079;BME280;5078;42.544;22.966;2023-11-22T05:07:49;93176.53;;;10.18;100.00
10079;BME280;5078;42.544;22.966;2023-11-22T05:10:16;93165.50;;;10.14;100.00
10079;BME280;5078;42.544;22.966;2023-11-22T05:12:43;93171.09;;;9.83;100.00
10079;BME280;5078;42.544;22.966;2023-11-22T05:15:11;93175.78;;;9.45;100.00
10079;BME280;5078;42.544;22.966;2023-11-22T05:17:39;93168.00;;;9.43;100.00
10079;BME280;5078;42.544;22.966;2023-11-22T05:20:07;93174.44;;;9.70;100.00
10079;BME280;5078;42.544;22.966;2023-11-22T05:22:35;93188.03;;;9.67;100.00
10079;BME280;5078;42.544;22.966;2023-11-22T05:25:02;93193.34;;;9.67;100.00
10079;BME280;5078;42.544;22.966;2023-11-22T05:27:29;93197.03;;;9.52;100.00
10079;BME280;5078;42.544;22.966;2023-11-22T05:29:58;93204.38;;;9.20;100.00
10079;BME280;5078;42.544;22.966;2023-11-22T05:32:27;93192.16;;;9.34;100.00
10079;BME280;5078;42.544;22.966;2023-11-22T05:34:54;93206.75;;;9.00;100.00
10079;BME280;5078;42.544;22.966;2023-11-22T05:37:20;93197.91;;;9.07;100.00
10079;BME280;5078;42.544;22.966;2023-11-22T05:39:47;93197.34;;;8.97;100.00
10079;BME280;5078;42.544;22.966;2023-11-22T05:42:14;93196.63;;;8.89;100.00
10079;BME280;5078;42.544;22.966;2023-11-22T05:44:41;93209.00;;;9.03;100.00
10079;BME280;5078;42.544;22.966;2023-11-22T05:47:07;93208.94;;;9.11;100.00
10079;BME280;5078;42.544;22.966;2023-11-22T05:49:35;93205.94;;;9.14;100.00
10079;BME280;5078;42.544;22.966;2023-11-22T05:52:02;93201.81;;;9.26;100.00
10079;BME280;5078;42.544;22.966;2023-11-22T05:54:30;93214.28;;;9.33;100.00
10079;BME280;5078;42.544;22.966;2023-11-22T05:56:57;93222.59;;;9.29;100.00
10079;BME280;5078;42.544;22.966;2023-11-22T05:59:24;93221.69;;;9.07;100.00
10079;BME280;5078;42.544;22.966;2023-11-22T06:01:50;93207.47;;;8.94;100.00
10079;BME280;5078;42.544;22.966;2023-11-22T06:04:17;93220.59;;;9.02;100.00
10079;BME280;5078;42.544;22.966;2023-11-22T06:06:45;93228.25;;;8.97;100.00
10079;BME280;5078;42.544;22.966;2023-11-22T06:09:13;93233.91;;;8.94;100.00
10079;BME280;5078;42.544;22.966;2023-11-22T06:11:40;93235.97;;;8.83;100.00
10079;BME280;5078;42.544;22.966;2023-11-22T06:14:07;93237.47;;;9.01;100.00
10079;BME280;5078;42.544;22.966;2023-11-22T06:16:34;93244.38;;;8.72;100.00
10079;BME280;5078;42.544;22.966;2023-11-22T06:19:00;93247.59;;;8.97;100.00
10079;BME280;5078;42.544;22.966;2023-11-22T06:21:27;93245.75;;;8.98;100.00
10079;BME280;5078;42.544;22.966;2023-11-22T06:23:55;93247.47;;;8.91;100.00
10079;BME280;5078;42.544;22.966;2023-11-22T06:26:23;93252.69;;;8.84;100.00
10079;BME280;5078;42.544;22.966;2023-11-22T06:28:50;93269.47;;;8.91;100.00
10079;BME280;5078;42.544;22.966;2023-11-22T06:31:17;93273.50;;;9.02;100.00
10079;BME280;5078;42.544;22.966;2023-11-22T06:33:44;93276.91;;;8.88;100.00
10079;BME280;5078;42.544;22.966;2023-11-22T06:36:11;93272.38;;;8.81;100.00
10079;BME280;5078;42.544;22.966;2023-11-22T06:38:39;93277.88;;;8.57;100.00
10079;BME280;5078;42.544;22.966;2023-11-22T06:41:07;93276.84;;;8.96;100.00
10079;BME280;5078;42.544;22.966;2023-11-22T06:43:34;93275.81;;;8.82;100.00
10079;BME280;5078;42.544;22.966;2023-11-22T06:46:01;93267.78;;;8.75;100.00
10079;BME280;5078;42.544;22.966;2023-11-22T06:48:31;93291.53;;;8.98;100.00
10079;BME280;5078;42.544;22.966;2023-11-22T06:50:58;93294.72;;;9.23;100.00
10079;BME280;5078;42.544;22.966;2023-11-22T06:53:25;93292.09;;;9.38;100.00
10079;BME280;5078;42.544;22.966;2023-11-22T06:55:51;93290.91;;;9.26;100.00
10079;BME280;5078;42.544;22.966;2023-11-22T06:58:20;93296.56;;;9.53;100.00
10079;BME280;5078;42.544;22.966;2023-11-22T07:00:47;93301.41;;;9.19;100.00
10079;BME280;5078;42.544;22.966;2023-11-22T07:03:13;93289.28;;;9.40;100.00
10079;BME280;5078;42.544;22.966;2023-11-22T07:05:41;93294.94;;;9.37;100.00
10079;BME280;5078;42.544;22.966;2023-11-22T07:08:07;93310.00;;;9.36;100.00
10079;BME280;5078;42.544;22.966;2023-11-22T07:10:36;93288.34;;;9.18;100.00
10079;BME280;5078;42.544;22.966;2023-11-22T07:13:03;93315.63;;;9.18;100.00
10079;BME280;5078;42.544;22.966;2023-11-22T07:15:31;93301.19;;;8.91;100.00
10079;BME280;5078;42.544;22.966;2023-11-22T07:17:58;93325.84;;;9.06;100.00
10079;BME280;5078;42.544;22.966;2023-11-22T07:20:25;93322.59;;;9.34;100.00
10079;BME280;5078;42.544;22.966;2023-11-22T07:22:52;93327.34;;;9.39;100.00
10079;BME280;5078;42.544;22.966;2023-11-22T07:25:23;93324.84;;;9.37;100.00
10079;BME280;5078;42.544;22.966;2023-11-22T07:27:51;93328.16;;;9.54;100.00
10079;BME280;5078;42.544;22.966;2023-11-22T07:30:18;93331.06;;;9.59;100.00
10079;BME280;5078;42.544;22.966;2023-11-22T07:32:49;93324.97;;;9.74;100.00
10079;BME280;5078;42.544;22.966;2023-11-22T07:35:17;93327.41;;;9.60;100.00
10079;BME280;5078;42.544;22.966;2023-11-22T07:37:45;93323.84;;;9.83;100.00
10079;BME280;5078;42.544;22.966;2023-11-22T07:40:13;93313.34;;;9.75;100.00
10079;BME280;5078;42.544;22.966;2023-11-22T07:42:40;93328.97;;;9.84;100.00
10079;BME280;5078;42.544;22.966;2023-11-22T07:45:07;93317.63;;;9.90;100.00
10079;BME280;5078;42.544;22.966;2023-11-22T07:47:37;93330.09;;;10.11;100.00
10079;BME280;5078;42.544;22.966;2023-11-22T07:50:07;93287.94;;;9.95;100.00
10079;BME280;5078;42.544;22.966;2023-11-22T07:52:34;93338.06;;;9.97;100.00
10079;BME280;5078;42.544;22.966;2023-11-22T07:55:03;93338.72;;;9.84;100.00
10079;BME280;5078;42.544;22.966;2023-11-22T07:57:30;93345.75;;;9.91;100.00
10079;BME280;5078;42.544;22.966;2023-11-22T07:59:57;93352.25;;;9.59;100.00
10079;BME280;5078;42.544;22.966;2023-11-22T08:02:26;93347.09;;;9.28;100.00
10079;BME280;5078;42.544;22.966;2023-11-22T08:04:53;93342.03;;;9.56;100.00
10079;BME280;5078;42.544;22.966;2023-11-22T08:07:22;93302.41;;;9.48;100.00
10079;BME280;5078;42.544;22.966;2023-11-22T08:09:49;93338.91;;;9.38;100.00
10079;BME280;5078;42.544;22.966;2023-11-22T08:12:16;93333.25;;;9.56;100.00
10079;BME280;5078;42.544;22.966;2023-11-22T08:14:44;93342.19;;;9.69;100.00
10079;BME280;5078;42.544;22.966;2023-11-22T08:17:11;93345.66;;;9.85;100.00
10079;BME280;5078;42.544;22.966;2023-11-22T08:19:39;93341.28;;;9.92;100.00
10079;BME280;5078;42.544;22.966;2023-11-22T08:22:06;93343.63;;;10.02;100.00
10079;BME280;5078;42.544;22.966;2023-11-22T08:24:35;93351.59;;;10.02;100.00
10079;BME280;5078;42.544;22.966;2023-11-22T08:27:01;93341.66;;;9.89;100.00
10079;BME280;5078;42.544;22.966;2023-11-22T08:29:29;93349.28;;;10.13;100.00
10079;BME280;5078;42.544;22.966;2023-11-22T08:31:56;93344.34;;;10.10;100.00
10079;BME280;5078;42.544;22.966;2023-11-22T08:34:23;93348.78;;;10.25;100.00
10079;BME280;5078;42.544;22.966;2023-11-22T08:36:50;93350.75;;;10.31;100.00
10079;BME280;5078;42.544;22.966;2023-11-22T08:39:17;93349.97;;;10.37;100.00
10079;BME280;5078;42.544;22.966;2023-11-22T08:41:45;93358.75;;;10.38;100.00
10079;BME280;5078;42.544;22.966;2023-11-22T08:44:14;93364.50;;;10.41;100.00
10079;BME280;5078;42.544;22.966;2023-11-22T08:46:41;93364.88;;;10.38;100.00
10079;BME280;5078;42.544;22.966;2023-11-22T08:49:08;93365.88;;;10.37;100.00
10079;BME280;5078;42.544;22.966;2023-11-22T08:51:36;93369.59;;;10.43;100.00
10079;BME280;5078;42.544;22.966;2023-11-22T08:54:03;93371.44;;;10.42;100.00
10079;BME280;5078;42.544;22.966;2023-11-22T08:56:30;93370.53;;;10.71;100.00
10079;BME280;5078;42.544;22.966;2023-11-22T08:58:58;93380.28;;;10.49;100.00
10079;BME280;5078;42.544;22.966;2023-11-22T09:01:25;93374.06;;;10.78;100.00
10079;BME280;5078;42.544;22.966;2023-11-22T09:03:52;93375.00;;;10.92;100.00
10079;BME280;5078;42.544;22.966;2023-11-22T09:06:18;93382.44;;;10.61;100.00
10079;BME280;5078;42.544;22.966;2023-11-22T09:08:46;93373.88;;;10.58;100.00
10079;BME280;5078;42.544;22.966;2023-11-22T09:11:14;93376.66;;;10.72;100.00
10079;BME280;5078;42.544;22.966;2023-11-22T09:13:42;93386.56;;;10.85;100.00
10079;BME280;5078;42.544;22.966;2023-11-22T09:16:11;93382.13;;;10.70;100.00
10079;BME280;5078;42.544;22.966;2023-11-22T09:18:38;93388.38;;;10.41;100.00
10079;BME280;5078;42.544;22.966;2023-11-22T09:21:05;93383.41;;;10.74;100.00
10079;BME280;5078;42.544;22.966;2023-11-22T09:23:33;93388.97;;;11.01;100.00
10079;BME280;5078;42.544;22.966;2023-11-22T09:26:01;93395.38;;;10.70;100.00
10079;BME280;5078;42.544;22.966;2023-11-22T09:28:28;93389.78;;;10.80;100.00
10079;BME280;5078;42.544;22.966;2023-11-22T09:30:54;93387.22;;;10.87;100.00
10079;BME280;5078;42.544;22.966;2023-11-22T09:33:28;93393.59;;;10.71;100.00
10079;BME280;5078;42.544;22.966;2023-11-22T09:35:55;93389.28;;;10.91;100.00
10079;BME280;5078;42.544;22.966;2023-11-22T09:38:21;93377.47;;;10.94;100.00
10079;BME280;5078;42.544;22.966;2023-11-22T09:40:49;93724.94;;;10.79;100.00
10079;BME280;5078;42.544;22.966;2023-11-22T09:43:19;93389.91;;;10.72;100.00
10079;BME280;5078;42.544;22.966;2023-11-22T09:45:47;93381.06;;;11.08;100.00
10079;BME280;5078;42.544;22.966;2023-11-22T09:48:15;93376.72;;;11.00;100.00
10079;BME280;5078;42.544;22.966;2023-11-22T09:50:50;93382.34;;;10.90;100.00
10079;BME280;5078;42.544;22.966;2023-11-22T09:53:22;93375.75;;;11.29;100.00
10079;BME280;5078;42.544;22.966;2023-11-22T09:55:52;93371.41;;;11.50;100.00
10079;BME280;5078;42.544;22.966;2023-11-22T09:58:20;93372.38;;;11.42;100.00
10079;BME280;5078;42.544;22.966;2023-11-22T10:00:47;93373.97;;;11.15;100.00
10079;BME280;5078;42.544;22.966;2023-11-22T10:03:14;93379.94;;;11.17;100.00
10079;BME280;5078;42.544;22.966;2023-11-22T10:05:44;93379.13;;;11.44;100.00
10079;BME280;5078;42.544;22.966;2023-11-22T10:08:10;93367.78;;;11.08;100.00
10079;BME280;5078;42.544;22.966;2023-11-22T10:10:37;93374.38;;;10.90;100.00
10079;BME280;5078;42.544;22.966;2023-11-22T10:13:05;93376.41;;;10.67;100.00
10079;BME280;5078;42.544;22.966;2023-11-22T10:15:32;93368.44;;;10.88;100.00
10079;BME280;5078;42.544;22.966;2023-11-22T10:17:59;93362.53;;;10.86;100.00
10079;BME280;5078;42.544;22.966;2023-11-22T10:20:36;93353.16;;;11.12;100.00
10079;BME280;5078;42.544;22.966;2023-11-22T10:23:08;93371.72;;;11.33;100.00
10079;BME280;5078;42.544;22.966;2023-11-22T10:25:36;93363.59;;;11.41;100.00
10079;BME280;5078;42.544;22.966;2023-11-22T10:28:02;93364.69;;;11.54;100.00
10079;BME280;5078;42.544;22.966;2023-11-22T10:30:29;93372.16;;;11.72;100.00
10079;BME280;5078;42.544;22.966;2023-11-22T10:32:57;93372.00;;;11.80;100.00
10079;BME280;5078;42.544;22.966;2023-11-22T10:35:24;93374.34;;;11.90;100.00
10079;BME280;5078;42.544;22.966;2023-11-22T10:37:50;93358.41;;;11.61;100.00
10079;BME280;5078;42.544;22.966;2023-11-22T10:40:20;93374.25;;;11.76;100.00
10079;BME280;5078;42.544;22.966;2023-11-22T10:42:48;93383.16;;;11.40;100.00
10079;BME280;5078;42.544;22.966;2023-11-22T10:45:17;93385.16;;;11.60;100.00
10079;BME280;5078;42.544;22.966;2023-11-22T10:47:45;93377.03;;;11.40;100.00
10079;BME280;5078;42.544;22.966;2023-11-22T10:50:12;93392.16;;;11.39;100.00
10079;BME280;5078;42.544;22.966;2023-11-22T10:52:41;93386.00;;;11.11;100.00
10079;BME280;5078;42.544;22.966;2023-11-22T10:55:11;93376.06;;;10.55;100.00
10079;BME280;5078;42.544;22.966;2023-11-22T10:57:45;93388.38;;;10.63;100.00
10079;BME280;5078;42.544;22.966;2023-11-22T11:00:15;93380.16;;;10.57;100.00
10079;BME280;5078;42.544;22.966;2023-11-22T11:02:45;93378.97;;;10.60;100.00
10079;BME280;5078;42.544;22.966;2023-11-22T11:05:16;93383.78;;;10.35;100.00
10079;BME280;5078;42.544;22.966;2023-11-22T11:07:49;93384.53;;;10.65;100.00
10079;BME280;5078;42.544;22.966;2023-11-22T11:10:19;93376.28;;;10.53;100.00
10079;BME280;5078;42.544;22.966;2023-11-22T11:12:48;93373.22;;;10.78;100.00
10079;BME280;5078;42.544;22.966;2023-11-22T11:15:16;93377.53;;;10.57;100.00
10079;BME280;5078;42.544;22.966;2023-11-22T11:17:44;93384.72;;;10.64;100.00
10079;BME280;5078;42.544;22.966;2023-11-22T11:20:15;93380.13;;;10.51;100.00
10079;BME280;5078;42.544;22.966;2023-11-22T11:22:43;93375.63;;;10.73;100.00
10079;BME280;5078;42.544;22.966;2023-11-22T11:25:13;93382.97;;;10.71;100.00
10079;BME280;5078;42.544;22.966;2023-11-22T11:27:41;93390.28;;;10.69;100.00
10079;BME280;5078;42.544;22.966;2023-11-22T11:30:41;93390.66;;;10.66;100.00
10079;BME280;5078;42.544;22.966;2023-11-22T11:33:09;93387.88;;;10.52;100.00
10079;BME280;5078;42.544;22.966;2023-11-22T11:35:38;93371.19;;;10.37;100.00
10079;BME280;5078;42.544;22.966;2023-11-22T11:38:05;93384.56;;;10.50;100.00
10079;BME280;5078;42.544;22.966;2023-11-22T11:40:34;93389.91;;;10.72;100.00
10079;BME280;5078;42.544;22.966;2023-11-22T11:43:02;93384.22;;;10.53;100.00
10079;BME280;5078;42.544;22.966;2023-11-22T11:45:28;93394.69;;;10.62;100.00
10079;BME280;5078;42.544;22.966;2023-11-22T11:47:58;93393.31;;;10.87;100.00
10079;BME280;5078;42.544;22.966;2023-11-22T11:50:24;93394.09;;;10.81;100.00
10079;BME280;5078;42.544;22.966;2023-11-22T11:52:52;93395.81;;;10.89;100.00
10079;BME280;5078;42.544;22.966;2023-11-22T11:55:18;93402.16;;;10.94;100.00
10079;BME280;5078;42.544;22.966;2023-11-22T11:57:45;93403.91;;;10.66;100.00
10079;BME280;5078;42.544;22.966;2023-11-22T12:00:14;93398.47;;;10.52;100.00
10079;BME280;5078;42.544;22.966;2023-11-22T12:02:41;93410.09;;;10.51;100.00
10079;BME280;5078;42.544;22.966;2023-11-22T12:05:09;93411.28;;;10.49;100.00
10079;BME280;5078;42.544;22.966;2023-11-22T12:07:36;93401.03;;;10.46;100.00
10079;BME280;5078;42.544;22.966;2023-11-22T12:10:04;93398.78;;;10.13;100.00
10079;BME280;5078;42.544;22.966;2023-11-22T12:12:32;93371.22;;;9.92;100.00
10079;BME280;5078;42.544;22.966;2023-11-22T12:14:59;93395.97;;;10.29;100.00
10079;BME280;5078;42.544;22.966;2023-11-22T12:17:26;93393.63;;;10.56;100.00
10079;BME280;5078;42.544;22.966;2023-11-22T12:19:53;93400.34;;;10.73;100.00
10079;BME280;5078;42.544;22.966;2023-11-22T12:22:36;93397.88;;;10.93;100.00
10079;BME280;5078;42.544;22.966;2023-11-22T12:25:03;93394.81;;;11.18;100.00
10079;BME280;5078;42.544;22.966;2023-11-22T12:27:30;93395.22;;;11.15;100.00
10079;BME280;5078;42.544;22.966;2023-11-22T12:30:00;93412.53;;;11.11;100.00
10079;BME280;5078;42.544;22.966;2023-11-22T12:32:45;93408.38;;;11.01;100.00
10079;BME280;5078;42.544;22.966;2023-11-22T12:35:19;93235.56;;;10.12;100.00
10079;BME280;5078;42.544;22.966;2023-11-22T12:37:55;93387.16;;;11.01;100.00
10079;BME280;5078;42.544;22.966;2023-11-22T12:40:21;93408.75;;;11.48;100.00
10079;BME280;5078;42.544;22.966;2023-11-22T12:42:49;93415.75;;;11.84;100.00
10079;BME280;5078;42.544;22.966;2023-11-22T12:45:20;93407.59;;;11.85;100.00
10079;BME280;5078;42.544;22.966;2023-11-22T12:47:49;93421.22;;;12.04;100.00
10079;BME280;5078;42.544;22.966;2023-11-22T12:50:32;93413.13;;;11.56;100.00
10079;BME280;5078;42.544;22.966;2023-11-22T12:53:09;93426.09;;;11.72;100.00
10079;BME280;5078;42.544;22.966;2023-11-22T12:55:38;93429.31;;;11.68;100.00